sensor_id;sensor_type;location;lat;lon;timestamp;P1;durP1;ratioP1;P2;durP2;ratioP2
58354;SDS011;44160;49.080;19.302;2022-09-24T00:01:30;10.85;;;6.90;;
58354;SDS011;44160;49.080;19.302;2022-09-24T00:03:58;12.98;;;6.25;;
58354;SDS011;44160;49.080;19.302;2022-09-24T00:06:24;9.85;;;6.20;;
58354;SDS011;44160;49.080;19.302;2022-09-24T00:08:51;9.68;;;6.47;;
58354;SDS011;44160;49.080;19.302;2022-09-24T00:11:19;8.13;;;5.47;;
58354;SDS011;44160;49.080;19.302;2022-09-24T00:13:45;9.00;;;5.45;;
58354;SDS011;44160;49.080;19.302;2022-09-24T00:16:12;8.57;;;5.10;;
58354;SDS011;44160;49.080;19.302;2022-09-24T00:18:38;11.07;;;5.47;;
58354;SDS011;44160;49.080;19.302;2022-09-24T00:21:16;8.93;;;5.45;;
58354;SDS011;44160;49.080;19.302;2022-09-24T00:23:42;8.25;;;5.40;;
58354;SDS011;44160;49.080;19.302;2022-09-24T00:26:11;9.40;;;5.80;;
58354;SDS011;44160;49.080;19.302;2022-09-24T00:28:56;11.93;;;6.93;;
58354;SDS011;44160;49.080;19.302;2022-09-24T00:31:23;12.18;;;5.80;;
58354;SDS011;44160;49.080;19.302;2022-09-24T00:33:49;9.50;;;5.55;;
58354;SDS011;44160;49.080;19.302;2022-09-24T00:36:16;8.10;;;5.40;;
58354;SDS011;44160;49.080;19.302;2022-09-24T00:38:43;8.52;;;5.40;;
58354;SDS011;44160;49.080;19.302;2022-09-24T00:41:09;7.88;;;5.55;;
58354;SDS011;44160;49.080;19.302;2022-09-24T00:43:36;9.23;;;4.88;;
58354;SDS011;44160;49.080;19.302;2022-09-24T00:48:35;10.23;;;5.32;;
58354;SDS011;44160;49.080;19.302;2022-09-24T00:51:04;8.88;;;5.38;;
58354;SDS011;44160;49.080;19.302;2022-09-24T00:53:31;9.88;;;5.50;;
58354;SDS011;44160;49.080;19.302;2022-09-24T00:55:58;11.80;;;5.47;;
58354;SDS011;44160;49.080;19.302;2022-09-24T00:58:25;9.35;;;5.97;;
58354;SDS011;44160;49.080;19.302;2022-09-24T01:00:53;7.78;;;5.10;;
58354;SDS011;44160;49.080;19.302;2022-09-24T01:03:22;8.52;;;4.68;;
58354;SDS011;44160;49.080;19.302;2022-09-24T01:05:49;6.93;;;4.38;;
58354;SDS011;44160;49.080;19.302;2022-09-24T01:08:16;8.68;;;4.57;;
58354;SDS011;44160;49.080;19.302;2022-09-24T01:10:57;6.53;;;4.88;;
58354;SDS011;44160;49.080;19.302;2022-09-24T01:18:45;8.57;;;4.97;;
58354;SDS011;44160;49.080;19.302;2022-09-24T01:21:23;6.97;;;4.40;;
58354;SDS011;44160;49.080;19.302;2022-09-24T01:29:17;7.47;;;4.82;;
58354;SDS011;44160;49.080;19.302;2022-09-24T01:31:47;7.78;;;4.85;;
58354;SDS011;44160;49.080;19.302;2022-09-24T01:34:17;14.15;;;4.97;;
58354;SDS011;44160;49.080;19.302;2022-09-24T01:36:45;8.98;;;4.88;;
58354;SDS011;44160;49.080;19.302;2022-09-24T01:39:14;6.95;;;4.55;;
58354;SDS011;44160;49.080;19.302;2022-09-24T01:41:41;7.65;;;4.35;;
58354;SDS011;44160;49.080;19.302;2022-09-24T01:44:07;6.70;;;4.30;;
58354;SDS011;44160;49.080;19.302;2022-09-24T01:46:36;10.57;;;4.63;;
58354;SDS011;44160;49.080;19.302;2022-09-24T01:49:03;5.28;;;3.67;;
58354;SDS011;44160;49.080;19.302;2022-09-24T01:51:47;7.85;;;3.83;;
58354;SDS011;44160;49.080;19.302;2022-09-24T01:56:46;7.82;;;4.20;;
58354;SDS011;44160;49.080;19.302;2022-09-24T01:59:15;6.38;;;3.90;;
58354;SDS011;44160;49.080;19.302;2022-09-24T02:02:04;6.60;;;4.68;;
58354;SDS011;44160;49.080;19.302;2022-09-24T02:04:29;8.25;;;4.15;;
58354;SDS011;44160;49.080;19.302;2022-09-24T02:07:04;7.72;;;4.47;;
58354;SDS011;44160;49.080;19.302;2022-09-24T02:09:36;8.82;;;5.25;;
58354;SDS011;44160;49.080;19.302;2022-09-24T02:14:31;8.00;;;4.45;;
58354;SDS011;44160;49.080;19.302;2022-09-24T02:16:59;7.50;;;4.72;;
58354;SDS011;44160;49.080;19.302;2022-09-24T02:19:27;6.93;;;4.22;;
58354;SDS011;44160;49.080;19.302;2022-09-24T02:21:54;6.55;;;4.32;;
58354;SDS011;44160;49.080;19.302;2022-09-24T02:26:57;9.98;;;4.18;;
58354;SDS011;44160;49.080;19.302;2022-09-24T02:29:23;7.40;;;4.30;;
58354;SDS011;44160;49.080;19.302;2022-09-24T02:31:50;7.97;;;4.20;;
58354;SDS011;44160;49.080;19.302;2022-09-24T02:34:21;6.38;;;4.45;;
58354;SDS011;44160;49.080;19.302;2022-09-24T02:36:51;7.55;;;4.00;;
58354;SDS011;44160;49.080;19.302;2022-09-24T02:39:17;7.90;;;4.80;;
58354;SDS011;44160;49.080;19.302;2022-09-24T02:41:44;10.65;;;4.88;;
58354;SDS011;44160;49.080;19.302;2022-09-24T02:44:16;9.00;;;4.80;;
58354;SDS011;44160;49.080;19.302;2022-09-24T02:46:43;6.65;;;4.20;;
58354;SDS011;44160;49.080;19.302;2022-09-24T02:49:10;6.68;;;4.22;;
58354;SDS011;44160;49.080;19.302;2022-09-24T02:51:36;6.78;;;4.43;;
58354;SDS011;44160;49.080;19.302;2022-09-24T02:54:02;7.35;;;4.13;;
58354;SDS011;44160;49.080;19.302;2022-09-24T02:56:28;7.50;;;4.90;;
58354;SDS011;44160;49.080;19.302;2022-09-24T02:58:55;8.13;;;5.20;;
58354;SDS011;44160;49.080;19.302;2022-09-24T03:01:21;9.93;;;5.60;;
58354;SDS011;44160;49.080;19.302;2022-09-24T03:03:48;13.70;;;6.65;;
58354;SDS011;44160;49.080;19.302;2022-09-24T03:06:14;9.90;;;5.72;;
58354;SDS011;44160;49.080;19.302;2022-09-24T03:08:41;12.20;;;6.00;;
58354;SDS011;44160;49.080;19.302;2022-09-24T03:11:07;7.20;;;4.88;;
58354;SDS011;44160;49.080;19.302;2022-09-24T03:13:35;11.85;;;4.90;;
58354;SDS011;44160;49.080;19.302;2022-09-24T03:16:01;7.50;;;4.75;;
58354;SDS011;44160;49.080;19.302;2022-09-24T03:18:27;8.35;;;4.63;;
58354;SDS011;44160;49.080;19.302;2022-09-24T03:20:57;8.23;;;4.78;;
58354;SDS011;44160;49.080;19.302;2022-09-24T03:23:23;7.90;;;4.88;;
58354;SDS011;44160;49.080;19.302;2022-09-24T03:25:49;13.18;;;5.40;;
58354;SDS011;44160;49.080;19.302;2022-09-24T03:28:16;11.48;;;5.10;;
58354;SDS011;44160;49.080;19.302;2022-09-24T03:30:42;18.52;;;6.30;;
58354;SDS011;44160;49.080;19.302;2022-09-24T03:33:31;12.88;;;5.85;;
58354;SDS011;44160;49.080;19.302;2022-09-24T03:35:58;9.48;;;5.15;;
58354;SDS011;44160;49.080;19.302;2022-09-24T03:38:24;11.80;;;6.00;;
58354;SDS011;44160;49.080;19.302;2022-09-24T03:40:50;10.05;;;5.93;;
58354;SDS011;44160;49.080;19.302;2022-09-24T03:43:17;12.20;;;6.68;;
58354;SDS011;44160;49.080;19.302;2022-09-24T03:45:43;8.18;;;4.70;;
58354;SDS011;44160;49.080;19.302;2022-09-24T03:48:09;7.95;;;4.75;;
58354;SDS011;44160;49.080;19.302;2022-09-24T03:50:35;6.28;;;4.38;;
58354;SDS011;44160;49.080;19.302;2022-09-24T03:53:01;9.50;;;5.32;;
58354;SDS011;44160;49.080;19.302;2022-09-24T03:55:27;7.53;;;5.18;;
58354;SDS011;44160;49.080;19.302;2022-09-24T03:57:53;9.93;;;5.72;;
58354;SDS011;44160;49.080;19.302;2022-09-24T04:00:20;7.20;;;4.05;;
58354;SDS011;44160;49.080;19.302;2022-09-24T04:02:47;8.27;;;4.28;;
58354;SDS011;44160;49.080;19.302;2022-09-24T04:05:13;5.78;;;4.03;;
58354;SDS011;44160;49.080;19.302;2022-09-24T04:07:41;7.95;;;4.40;;
58354;SDS011;44160;49.080;19.302;2022-09-24T04:10:07;9.65;;;4.63;;
58354;SDS011;44160;49.080;19.302;2022-09-24T04:12:33;7.45;;;4.20;;
58354;SDS011;44160;49.080;19.302;2022-09-24T04:14:59;7.18;;;4.72;;
58354;SDS011;44160;49.080;19.302;2022-09-24T04:17:27;7.78;;;4.82;;
58354;SDS011;44160;49.080;19.302;2022-09-24T04:19:55;8.52;;;4.88;;
58354;SDS011;44160;49.080;19.302;2022-09-24T04:22:21;8.55;;;4.85;;
58354;SDS011;44160;49.080;19.302;2022-09-24T04:24:47;8.35;;;5.10;;
58354;SDS011;44160;49.080;19.302;2022-09-24T04:27:15;7.28;;;4.28;;
58354;SDS011;44160;49.080;19.302;2022-09-24T04:29:41;6.65;;;4.57;;
58354;SDS011;44160;49.080;19.302;2022-09-24T04:32:07;8.70;;;4.50;;
58354;SDS011;44160;49.080;19.302;2022-09-24T04:34:33;8.93;;;4.50;;
58354;SDS011;44160;49.080;19.302;2022-09-24T04:36:59;8.38;;;4.65;;
58354;SDS011;44160;49.080;19.302;2022-09-24T04:39:25;7.05;;;5.05;;
58354;SDS011;44160;49.080;19.302;2022-09-24T04:41:52;7.47;;;4.95;;
58354;SDS011;44160;49.080;19.302;2022-09-24T04:44:18;4.97;;;3.80;;
58354;SDS011;44160;49.080;19.302;2022-09-24T04:46:44;5.60;;;4.10;;
58354;SDS011;44160;49.080;19.302;2022-09-24T04:49:10;6.45;;;4.70;;
58354;SDS011;44160;49.080;19.302;2022-09-24T04:51:36;13.43;;;7.78;;
58354;SDS011;44160;49.080;19.302;2022-09-24T04:54:02;12.90;;;8.25;;
58354;SDS011;44160;49.080;19.302;2022-09-24T04:56:29;12.32;;;9.48;;
58354;SDS011;44160;49.080;19.302;2022-09-24T04:58:55;19.15;;;11.75;;
58354;SDS011;44160;49.080;19.302;2022-09-24T05:01:21;33.88;;;20.35;;
58354;SDS011;44160;49.080;19.302;2022-09-24T05:03:48;34.67;;;21.50;;
58354;SDS011;44160;49.080;19.302;2022-09-24T05:06:14;29.73;;;19.10;;
58354;SDS011;44160;49.080;19.302;2022-09-24T05:08:40;23.55;;;14.13;;
58354;SDS011;44160;49.080;19.302;2022-09-24T05:11:07;16.75;;;11.18;;
58354;SDS011;44160;49.080;19.302;2022-09-24T05:13:33;10.63;;;7.55;;
58354;SDS011;44160;49.080;19.302;2022-09-24T05:16:00;9.80;;;6.53;;
58354;SDS011;44160;49.080;19.302;2022-09-24T05:18:26;10.00;;;6.78;;
58354;SDS011;44160;49.080;19.302;2022-09-24T05:20:52;8.20;;;5.95;;
58354;SDS011;44160;49.080;19.302;2022-09-24T05:23:18;7.65;;;5.45;;
58354;SDS011;44160;49.080;19.302;2022-09-24T05:25:44;9.70;;;5.88;;
58354;SDS011;44160;49.080;19.302;2022-09-24T05:28:29;15.95;;;7.45;;
58354;SDS011;44160;49.080;19.302;2022-09-24T05:30:59;18.35;;;7.40;;
58354;SDS011;44160;49.080;19.302;2022-09-24T05:33:25;11.52;;;5.70;;
58354;SDS011;44160;49.080;19.302;2022-09-24T05:35:52;9.10;;;6.03;;
58354;SDS011;44160;49.080;19.302;2022-09-24T05:38:18;10.48;;;5.97;;
58354;SDS011;44160;49.080;19.302;2022-09-24T05:40:45;12.52;;;6.45;;
58354;SDS011;44160;49.080;19.302;2022-09-24T05:43:14;10.45;;;5.88;;
58354;SDS011;44160;49.080;19.302;2022-09-24T05:45:41;12.93;;;7.10;;
58354;SDS011;44160;49.080;19.302;2022-09-24T05:48:07;11.77;;;6.70;;
58354;SDS011;44160;49.080;19.302;2022-09-24T05:50:33;13.13;;;6.85;;
58354;SDS011;44160;49.080;19.302;2022-09-24T05:52:59;13.32;;;6.72;;
58354;SDS011;44160;49.080;19.302;2022-09-24T05:55:25;12.65;;;6.68;;
58354;SDS011;44160;49.080;19.302;2022-09-24T05:57:52;11.85;;;6.78;;
58354;SDS011;44160;49.080;19.302;2022-09-24T06:00:18;11.48;;;6.82;;
58354;SDS011;44160;49.080;19.302;2022-09-24T06:02:44;10.82;;;6.90;;
58354;SDS011;44160;49.080;19.302;2022-09-24T06:05:11;14.38;;;7.95;;
58354;SDS011;44160;49.080;19.302;2022-09-24T06:07:37;12.98;;;7.45;;
58354;SDS011;44160;49.080;19.302;2022-09-24T06:10:04;13.10;;;8.25;;
58354;SDS011;44160;49.080;19.302;2022-09-24T06:12:31;11.23;;;6.93;;
58354;SDS011;44160;49.080;19.302;2022-09-24T06:14:59;12.60;;;7.40;;
58354;SDS011;44160;49.080;19.302;2022-09-24T06:17:25;12.15;;;7.93;;
58354;SDS011;44160;49.080;19.302;2022-09-24T06:19:52;15.55;;;7.25;;
58354;SDS011;44160;49.080;19.302;2022-09-24T06:22:19;12.38;;;7.90;;
58354;SDS011;44160;49.080;19.302;2022-09-24T06:24:45;12.73;;;7.90;;
58354;SDS011;44160;49.080;19.302;2022-09-24T06:27:11;15.23;;;7.82;;
58354;SDS011;44160;49.080;19.302;2022-09-24T06:29:37;10.77;;;6.82;;
58354;SDS011;44160;49.080;19.302;2022-09-24T06:32:03;14.63;;;6.65;;
58354;SDS011;44160;49.080;19.302;2022-09-24T06:34:29;14.55;;;7.07;;
58354;SDS011;44160;49.080;19.302;2022-09-24T06:36:55;11.43;;;6.75;;
58354;SDS011;44160;49.080;19.302;2022-09-24T06:39:22;11.48;;;5.93;;
58354;SDS011;44160;49.080;19.302;2022-09-24T06:41:49;12.68;;;8.18;;
58354;SDS011;44160;49.080;19.302;2022-09-24T06:44:16;10.57;;;7.40;;
58354;SDS011;44160;49.080;19.302;2022-09-24T06:46:43;12.23;;;7.65;;
58354;SDS011;44160;49.080;19.302;2022-09-24T06:49:09;12.38;;;6.93;;
58354;SDS011;44160;49.080;19.302;2022-09-24T06:51:36;9.55;;;6.40;;
58354;SDS011;44160;49.080;19.302;2022-09-24T06:54:02;9.98;;;6.68;;
58354;SDS011;44160;49.080;19.302;2022-09-24T06:56:28;11.02;;;6.63;;
58354;SDS011;44160;49.080;19.302;2022-09-24T06:58:55;13.95;;;8.70;;
58354;SDS011;44160;49.080;19.302;2022-09-24T07:01:21;20.15;;;12.38;;
58354;SDS011;44160;49.080;19.302;2022-09-24T07:03:47;40.97;;;19.67;;
58354;SDS011;44160;49.080;19.302;2022-09-24T07:06:13;12.75;;;7.53;;
58354;SDS011;44160;49.080;19.302;2022-09-24T07:08:39;7.78;;;5.82;;
58354;SDS011;44160;49.080;19.302;2022-09-24T07:11:05;12.95;;;8.15;;
58354;SDS011;44160;49.080;19.302;2022-09-24T07:13:32;8.40;;;5.70;;
58354;SDS011;44160;49.080;19.302;2022-09-24T07:15:59;7.90;;;5.50;;
58354;SDS011;44160;49.080;19.302;2022-09-24T07:18:25;12.90;;;6.32;;
58354;SDS011;44160;49.080;19.302;2022-09-24T07:20:52;9.90;;;5.72;;
58354;SDS011;44160;49.080;19.302;2022-09-24T07:23:18;8.10;;;5.50;;
58354;SDS011;44160;49.080;19.302;2022-09-24T07:25:45;14.75;;;8.82;;
58354;SDS011;44160;49.080;19.302;2022-09-24T07:28:15;9.65;;;6.78;;
58354;SDS011;44160;49.080;19.302;2022-09-24T07:30:42;12.95;;;6.85;;
58354;SDS011;44160;49.080;19.302;2022-09-24T07:33:08;10.65;;;7.22;;
58354;SDS011;44160;49.080;19.302;2022-09-24T07:35:38;16.60;;;10.20;;
58354;SDS011;44160;49.080;19.302;2022-09-24T07:38:05;8.57;;;7.05;;
58354;SDS011;44160;49.080;19.302;2022-09-24T07:40:31;12.13;;;8.00;;
58354;SDS011;44160;49.080;19.302;2022-09-24T07:42:58;31.88;;;18.15;;
58354;SDS011;44160;49.080;19.302;2022-09-24T07:45:25;22.23;;;13.23;;
58354;SDS011;44160;49.080;19.302;2022-09-24T07:47:59;10.23;;;7.50;;
58354;SDS011;44160;49.080;19.302;2022-09-24T07:50:26;12.90;;;9.20;;
58354;SDS011;44160;49.080;19.302;2022-09-24T07:52:52;17.98;;;8.82;;
58354;SDS011;44160;49.080;19.302;2022-09-24T07:55:19;19.15;;;10.18;;
58354;SDS011;44160;49.080;19.302;2022-09-24T07:57:49;15.90;;;10.85;;
58354;SDS011;44160;49.080;19.302;2022-09-24T08:00:16;13.10;;;8.60;;
58354;SDS011;44160;49.080;19.302;2022-09-24T08:02:43;14.68;;;10.02;;
58354;SDS011;44160;49.080;19.302;2022-09-24T08:05:09;14.70;;;9.82;;
58354;SDS011;44160;49.080;19.302;2022-09-24T08:07:35;13.10;;;8.05;;
58354;SDS011;44160;49.080;19.302;2022-09-24T08:10:01;22.70;;;12.30;;
58354;SDS011;44160;49.080;19.302;2022-09-24T08:12:27;10.88;;;8.23;;
58354;SDS011;44160;49.080;19.302;2022-09-24T08:14:55;9.98;;;7.70;;
58354;SDS011;44160;49.080;19.302;2022-09-24T08:17:21;10.90;;;6.85;;
58354;SDS011;44160;49.080;19.302;2022-09-24T08:19:47;20.67;;;14.85;;
58354;SDS011;44160;49.080;19.302;2022-09-24T08:22:15;20.10;;;11.38;;
58354;SDS011;44160;49.080;19.302;2022-09-24T08:24:41;11.02;;;7.32;;
58354;SDS011;44160;49.080;19.302;2022-09-24T08:27:08;13.15;;;8.77;;
58354;SDS011;44160;49.080;19.302;2022-09-24T08:29:34;48.08;;;22.05;;
58354;SDS011;44160;49.080;19.302;2022-09-24T08:32:01;14.13;;;9.27;;
58354;SDS011;44160;49.080;19.302;2022-09-24T08:34:27;20.35;;;10.82;;
58354;SDS011;44160;49.080;19.302;2022-09-24T08:36:55;9.10;;;6.07;;
58354;SDS011;44160;49.080;19.302;2022-09-24T08:39:22;13.70;;;8.20;;
58354;SDS011;44160;49.080;19.302;2022-09-24T08:41:58;7.30;;;6.07;;
58354;SDS011;44160;49.080;19.302;2022-09-24T08:44:36;11.70;;;6.80;;
58354;SDS011;44160;49.080;19.302;2022-09-24T08:49:53;6.85;;;5.20;;
58354;SDS011;44160;49.080;19.302;2022-09-24T08:52:33;6.33;;;5.17;;
58354;SDS011;44160;49.080;19.302;2022-09-24T08:55:02;8.10;;;5.60;;
58354;SDS011;44160;49.080;19.302;2022-09-24T08:57:29;7.07;;;4.70;;
58354;SDS011;44160;49.080;19.302;2022-09-24T08:59:58;7.72;;;4.70;;
58354;SDS011;44160;49.080;19.302;2022-09-24T09:07:56;7.15;;;5.90;;
58354;SDS011;44160;49.080;19.302;2022-09-24T09:10:26;7.45;;;5.15;;
58354;SDS011;44160;49.080;19.302;2022-09-24T09:13:05;6.70;;;4.97;;
58354;SDS011;44160;49.080;19.302;2022-09-24T09:15:38;10.02;;;6.28;;
58354;SDS011;44160;49.080;19.302;2022-09-24T09:18:27;7.57;;;5.10;;
58354;SDS011;44160;49.080;19.302;2022-09-24T09:20:51;7.13;;;5.03;;
58354;SDS011;44160;49.080;19.302;2022-09-24T09:23:20;5.57;;;4.57;;
58354;SDS011;44160;49.080;19.302;2022-09-24T09:25:56;6.35;;;4.15;;
58354;SDS011;44160;49.080;19.302;2022-09-24T09:28:24;16.45;;;11.57;;
58354;SDS011;44160;49.080;19.302;2022-09-24T09:39:03;4.80;;;3.58;;
58354;SDS011;44160;49.080;19.302;2022-09-24T09:41:39;5.45;;;4.22;;
58354;SDS011;44160;49.080;19.302;2022-09-24T09:44:10;17.52;;;11.52;;
58354;SDS011;44160;49.080;19.302;2022-09-24T09:46:36;5.37;;;4.10;;
58354;SDS011;44160;49.080;19.302;2022-09-24T09:49:05;10.98;;;6.90;;
58354;SDS011;44160;49.080;19.302;2022-09-24T09:51:39;6.43;;;4.75;;
58354;SDS011;44160;49.080;19.302;2022-09-24T09:54:08;8.00;;;5.18;;
58354;SDS011;44160;49.080;19.302;2022-09-24T09:56:42;4.25;;;3.22;;
58354;SDS011;44160;49.080;19.302;2022-09-24T10:01:39;4.25;;;3.63;;
58354;SDS011;44160;49.080;19.302;2022-09-24T10:04:06;5.05;;;3.13;;
58354;SDS011;44160;49.080;19.302;2022-09-24T10:06:47;3.53;;;2.80;;
58354;SDS011;44160;49.080;19.302;2022-09-24T10:09:16;3.97;;;3.35;;
58354;SDS011;44160;49.080;19.302;2022-09-24T10:11:46;10.93;;;7.28;;
58354;SDS011;44160;49.080;19.302;2022-09-24T10:14:13;6.38;;;4.22;;
58354;SDS011;44160;49.080;19.302;2022-09-24T10:16:41;4.05;;;2.97;;
58354;SDS011;44160;49.080;19.302;2022-09-24T10:19:26;11.45;;;4.63;;
58354;SDS011;44160;49.080;19.302;2022-09-24T10:21:53;8.98;;;6.35;;
58354;SDS011;44160;49.080;19.302;2022-09-24T10:24:21;3.80;;;3.08;;
58354;SDS011;44160;49.080;19.302;2022-09-24T10:26:48;4.32;;;2.65;;
58354;SDS011;44160;49.080;19.302;2022-09-24T10:32:05;4.50;;;3.45;;
58354;SDS011;44160;49.080;19.302;2022-09-24T10:34:31;4.47;;;3.50;;
58354;SDS011;44160;49.080;19.302;2022-09-24T10:36:59;5.15;;;4.00;;
58354;SDS011;44160;49.080;19.302;2022-09-24T10:39:26;9.18;;;3.42;;
58354;SDS011;44160;49.080;19.302;2022-09-24T10:41:53;4.00;;;3.10;;
58354;SDS011;44160;49.080;19.302;2022-09-24T10:44:23;3.67;;;2.65;;
58354;SDS011;44160;49.080;19.302;2022-09-24T10:47:05;5.70;;;3.58;;
58354;SDS011;44160;49.080;19.302;2022-09-24T11:00:21;2.08;;;1.40;;
58354;SDS011;44160;49.080;19.302;2022-09-24T11:03:22;2.08;;;1.45;;
58354;SDS011;44160;49.080;19.302;2022-09-24T11:05:40;1.88;;;1.50;;
58354;SDS011;44160;49.080;19.302;2022-09-24T11:08:18;4.05;;;1.60;;
58354;SDS011;44160;49.080;19.302;2022-09-24T11:37:18;2.97;;;1.85;;
58354;SDS011;44160;49.080;19.302;2022-09-24T11:42:37;2.45;;;1.73;;
58354;SDS011;44160;49.080;19.302;2022-09-24T11:48:00;4.00;;;1.98;;
58354;SDS011;44160;49.080;19.302;2022-09-24T12:01:36;2.42;;;1.70;;
58354;SDS011;44160;49.080;19.302;2022-09-24T12:04:10;2.35;;;1.80;;
58354;SDS011;44160;49.080;19.302;2022-09-24T12:12:07;5.28;;;2.47;;
58354;SDS011;44160;49.080;19.302;2022-09-24T12:17:06;3.88;;;2.30;;
58354;SDS011;44160;49.080;19.302;2022-09-24T12:19:55;3.72;;;2.33;;
58354;SDS011;44160;49.080;19.302;2022-09-24T12:22:21;3.35;;;2.10;;
58354;SDS011;44160;49.080;19.302;2022-09-24T12:24:49;3.00;;;1.80;;
58354;SDS011;44160;49.080;19.302;2022-09-24T12:27:17;4.70;;;2.70;;
58354;SDS011;44160;49.080;19.302;2022-09-24T12:30:03;4.63;;;2.25;;
58354;SDS011;44160;49.080;19.302;2022-09-24T12:33:11;4.50;;;2.00;;
58354;SDS011;44160;49.080;19.302;2022-09-24T12:35:45;4.82;;;2.40;;
58354;SDS011;44160;49.080;19.302;2022-09-24T12:38:19;2.90;;;2.17;;
58354;SDS011;44160;49.080;19.302;2022-09-24T12:46:11;3.47;;;2.10;;
58354;SDS011;44160;49.080;19.302;2022-09-24T12:48:41;5.88;;;2.28;;
58354;SDS011;44160;49.080;19.302;2022-09-24T12:51:10;5.00;;;2.57;;
58354;SDS011;44160;49.080;19.302;2022-09-24T12:53:42;3.17;;;2.20;;
58354;SDS011;44160;49.080;19.302;2022-09-24T12:56:08;2.70;;;1.88;;
58354;SDS011;44160;49.080;19.302;2022-09-24T12:58:39;4.88;;;2.17;;
58354;SDS011;44160;49.080;19.302;2022-09-24T13:06:38;3.03;;;2.10;;
58354;SDS011;44160;49.080;19.302;2022-09-24T13:12:00;4.00;;;2.42;;
58354;SDS011;44160;49.080;19.302;2022-09-24T13:14:26;4.55;;;2.58;;
58354;SDS011;44160;49.080;19.302;2022-09-24T13:16:57;3.47;;;2.25;;
58354;SDS011;44160;49.080;19.302;2022-09-24T13:19:42;3.70;;;2.30;;
58354;SDS011;44160;49.080;19.302;2022-09-24T13:27:40;3.78;;;2.28;;
58354;SDS011;44160;49.080;19.302;2022-09-24T13:32:37;5.22;;;2.10;;
58354;SDS011;44160;49.080;19.302;2022-09-24T13:35:12;3.15;;;2.05;;
58354;SDS011;44160;49.080;19.302;2022-09-24T13:37:40;2.53;;;1.85;;
58354;SDS011;44160;49.080;19.302;2022-09-24T13:40:17;3.90;;;2.80;;
58354;SDS011;44160;49.080;19.302;2022-09-24T13:42:56;2.85;;;2.10;;
58354;SDS011;44160;49.080;19.302;2022-09-24T13:45:23;3.28;;;2.33;;
58354;SDS011;44160;49.080;19.302;2022-09-24T13:50:32;4.32;;;2.30;;
58354;SDS011;44160;49.080;19.302;2022-09-24T13:55:30;3.00;;;2.20;;
58354;SDS011;44160;49.080;19.302;2022-09-24T13:57:57;3.15;;;2.35;;
58354;SDS011;44160;49.080;19.302;2022-09-24T14:00:26;4.35;;;2.80;;
58354;SDS011;44160;49.080;19.302;2022-09-24T14:02:58;5.72;;;2.33;;
58354;SDS011;44160;49.080;19.302;2022-09-24T14:05:26;4.95;;;1.85;;
58354;SDS011;44160;49.080;19.302;2022-09-24T14:07:57;3.40;;;2.28;;
58354;SDS011;44160;49.080;19.302;2022-09-24T14:13:00;3.80;;;2.60;;
58354;SDS011;44160;49.080;19.302;2022-09-24T14:15:29;4.30;;;2.90;;
58354;SDS011;44160;49.080;19.302;2022-09-24T14:17:59;3.83;;;2.50;;
58354;SDS011;44160;49.080;19.302;2022-09-24T14:20:29;5.20;;;2.58;;
58354;SDS011;44160;49.080;19.302;2022-09-24T14:22:56;4.30;;;2.30;;
58354;SDS011;44160;49.080;19.302;2022-09-24T14:25:28;4.38;;;2.38;;
58354;SDS011;44160;49.080;19.302;2022-09-24T14:28:01;5.93;;;3.90;;
58354;SDS011;44160;49.080;19.302;2022-09-24T14:30:30;7.90;;;3.05;;
58354;SDS011;44160;49.080;19.302;2022-09-24T14:33:18;3.45;;;2.33;;
58354;SDS011;44160;49.080;19.302;2022-09-24T14:35:48;5.43;;;2.70;;
58354;SDS011;44160;49.080;19.302;2022-09-24T14:38:45;3.47;;;2.17;;
58354;SDS011;44160;49.080;19.302;2022-09-24T14:41:41;3.17;;;2.22;;
58354;SDS011;44160;49.080;19.302;2022-09-24T14:44:05;2.95;;;1.98;;
58354;SDS011;44160;49.080;19.302;2022-09-24T14:46:44;6.32;;;2.08;;
58354;SDS011;44160;49.080;19.302;2022-09-24T14:54:38;3.38;;;1.95;;
58354;SDS011;44160;49.080;19.302;2022-09-24T14:57:10;3.33;;;2.38;;
58354;SDS011;44160;49.080;19.302;2022-09-24T14:59:36;5.25;;;3.20;;
58354;SDS011;44160;49.080;19.302;2022-09-24T15:02:05;5.30;;;2.50;;
58354;SDS011;44160;49.080;19.302;2022-09-24T15:04:37;4.57;;;2.60;;
58354;SDS011;44160;49.080;19.302;2022-09-24T15:07:03;3.95;;;2.63;;
58354;SDS011;44160;49.080;19.302;2022-09-24T15:09:30;12.35;;;6.93;;
58354;SDS011;44160;49.080;19.302;2022-09-24T15:12:08;5.13;;;2.45;;
58354;SDS011;44160;49.080;19.302;2022-09-24T15:14:34;2.63;;;2.30;;
58354;SDS011;44160;49.080;19.302;2022-09-24T15:17:08;3.67;;;2.95;;
58354;SDS011;44160;49.080;19.302;2022-09-24T15:19:35;4.07;;;3.00;;
58354;SDS011;44160;49.080;19.302;2022-09-24T15:22:04;5.25;;;2.63;;
58354;SDS011;44160;49.080;19.302;2022-09-24T15:24:30;4.97;;;2.63;;
58354;SDS011;44160;49.080;19.302;2022-09-24T15:26:59;4.25;;;2.00;;
58354;SDS011;44160;49.080;19.302;2022-09-24T15:29:25;6.97;;;3.63;;
58354;SDS011;44160;49.080;19.302;2022-09-24T15:31:51;4.63;;;3.10;;
58354;SDS011;44160;49.080;19.302;2022-09-24T15:34:18;5.82;;;3.03;;
58354;SDS011;44160;49.080;19.302;2022-09-24T15:36:45;5.10;;;3.58;;
58354;SDS011;44160;49.080;19.302;2022-09-24T15:39:11;5.57;;;3.47;;
58354;SDS011;44160;49.080;19.302;2022-09-24T15:41:37;6.22;;;3.60;;
58354;SDS011;44160;49.080;19.302;2022-09-24T15:44:04;3.58;;;2.70;;
58354;SDS011;44160;49.080;19.302;2022-09-24T15:46:30;5.55;;;2.70;;
58354;SDS011;44160;49.080;19.302;2022-09-24T15:48:56;2.95;;;2.53;;
58354;SDS011;44160;49.080;19.302;2022-09-24T15:51:22;4.05;;;2.65;;
58354;SDS011;44160;49.080;19.302;2022-09-24T15:53:48;6.32;;;2.80;;
58354;SDS011;44160;49.080;19.302;2022-09-24T15:56:15;6.82;;;3.75;;
58354;SDS011;44160;49.080;19.302;2022-09-24T15:58:44;5.60;;;3.58;;
58354;SDS011;44160;49.080;19.302;2022-09-24T16:01:16;4.78;;;3.45;;
58354;SDS011;44160;49.080;19.302;2022-09-24T16:03:42;5.25;;;3.83;;
58354;SDS011;44160;49.080;19.302;2022-09-24T16:06:09;6.03;;;3.90;;
58354;SDS011;44160;49.080;19.302;2022-09-24T16:08:36;6.47;;;3.95;;
58354;SDS011;44160;49.080;19.302;2022-09-24T16:11:02;11.55;;;3.90;;
58354;SDS011;44160;49.080;19.302;2022-09-24T16:13:30;5.93;;;4.28;;
58354;SDS011;44160;49.080;19.302;2022-09-24T16:15:56;4.97;;;2.70;;
58354;SDS011;44160;49.080;19.302;2022-09-24T16:18:22;4.57;;;3.08;;
58354;SDS011;44160;49.080;19.302;2022-09-24T16:20:50;7.32;;;3.38;;
58354;SDS011;44160;49.080;19.302;2022-09-24T16:23:16;6.15;;;4.07;;
58354;SDS011;44160;49.080;19.302;2022-09-24T16:25:55;5.28;;;4.03;;
58354;SDS011;44160;49.080;19.302;2022-09-24T16:28:22;8.95;;;4.40;;
58354;SDS011;44160;49.080;19.302;2022-09-24T16:30:48;8.70;;;4.78;;
58354;SDS011;44160;49.080;19.302;2022-09-24T16:33:14;9.13;;;6.10;;
58354;SDS011;44160;49.080;19.302;2022-09-24T16:35:40;7.38;;;5.20;;
58354;SDS011;44160;49.080;19.302;2022-09-24T16:38:06;11.38;;;7.07;;
58354;SDS011;44160;49.080;19.302;2022-09-24T16:40:32;16.52;;;9.43;;
58354;SDS011;44160;49.080;19.302;2022-09-24T16:42:58;15.68;;;8.93;;
58354;SDS011;44160;49.080;19.302;2022-09-24T16:45:25;11.02;;;7.72;;
58354;SDS011;44160;49.080;19.302;2022-09-24T16:47:51;10.35;;;6.05;;
58354;SDS011;44160;49.080;19.302;2022-09-24T16:50:17;14.25;;;7.00;;
58354;SDS011;44160;49.080;19.302;2022-09-24T16:52:44;10.77;;;6.07;;
58354;SDS011;44160;49.080;19.302;2022-09-24T16:55:21;15.10;;;9.25;;
58354;SDS011;44160;49.080;19.302;2022-09-24T16:57:58;28.10;;;17.80;;